createdAt,value
2019-04-28T00:01:15.728Z,68.51
2019-04-28T00:03:44.864Z,68.95
2019-04-28T00:06:14.222Z,68.38
2019-04-28T00:08:43.290Z,69.50
2019-04-28T00:11:12.839Z,68.81
2019-04-28T00:13:41.922Z,69.89
2019-04-28T00:16:11.661Z,68.64
2019-04-28T00:18:42.395Z,69.18
2019-04-28T00:21:31.936Z,69.10
2019-04-28T00:24:24.710Z,69.65
2019-04-28T00:26:58.515Z,69.27
2019-04-28T00:29:38.694Z,68.52
2019-04-28T00:31:58.681Z,69.45
2019-04-28T00:34:27.781Z,69.62
2019-04-28T00:37:12.521Z,69.26
2019-04-28T00:39:41.608Z,68.97
2019-04-28T00:42:11.789Z,68.09
2019-04-28T00:44:43.072Z,68.51
2019-04-28T00:47:11.772Z,67.74
2019-04-28T00:49:47.058Z,67.22
2019-04-28T00:52:17.982Z,67.97
2019-04-28T00:54:47.607Z,68.65
2019-04-28T00:57:17.361Z,67.58
2019-04-28T00:59:56.742Z,67.63
2019-04-28T01:02:28.413Z,67.89
2019-04-28T01:04:57.717Z,67.57
2019-04-28T01:07:26.754Z,67.72
2019-04-28T01:09:55.814Z,68.11
2019-04-28T01:12:25.155Z,67.97
2019-04-28T01:14:55.492Z,68.29
2019-04-28T01:17:42.795Z,68.36
2019-04-28T01:20:13.531Z,67.87
2019-04-28T01:22:42.636Z,68.58
2019-04-28T01:25:11.686Z,68.42
2019-04-28T01:27:52.523Z,68.39
2019-04-28T01:30:45.634Z,68.56
2019-04-28T01:33:21.949Z,68.62
2019-04-28T01:35:51.015Z,68.82
2019-04-28T01:38:20.572Z,68.99
2019-04-28T01:40:50.024Z,69.54
2019-04-28T01:43:19.586Z,69.33
2019-04-28T01:45:50.242Z,69.66
2019-04-28T01:48:19.934Z,70.15
2019-04-28T01:50:49.968Z,69.44
2019-04-28T01:53:20.245Z,69.73
2019-04-28T01:55:49.595Z,69.68
2019-04-28T01:58:20.407Z,68.25
2019-04-28T02:00:50.553Z,67.75
2019-04-28T02:03:20.538Z,67.93
2019-04-28T02:05:50.222Z,67.83
2019-04-28T02:08:20.262Z,67.83
2019-04-28T02:10:50.151Z,68.52
2019-04-28T02:13:19.830Z,69.55
2019-04-28T02:15:50.107Z,69.49
2019-04-28T02:18:19.924Z,69.36
2019-04-28T02:20:54.545Z,68.27
2019-04-28T02:23:27.467Z,68.48
2019-04-28T02:25:56.522Z,68.81
2019-04-28T02:28:25.574Z,69.25
2019-04-28T02:30:54.923Z,69.74
2019-04-28T02:33:23.941Z,70.23
2019-04-28T02:35:53.003Z,69.82
2019-04-28T02:38:22.293Z,70.73
2019-04-28T02:40:51.325Z,70.92
2019-04-28T02:43:21.013Z,71.10
2019-04-28T02:45:53.465Z,69.97
2019-04-28T02:48:24.907Z,70.49
2019-04-28T02:51:02.441Z,70.30
2019-04-28T02:53:34.583Z,69.07
2019-04-28T02:56:05.233Z,69.62
2019-04-28T02:58:34.282Z,69.39
2019-04-28T03:01:13.025Z,69.44
2019-04-28T03:03:34.370Z,69.38
2019-04-28T03:06:06.467Z,69.42
2019-04-28T03:08:35.925Z,70.10
2019-04-28T03:11:04.987Z,71.32
2019-04-28T03:13:34.147Z,72.04
2019-04-28T03:16:05.590Z,71.64
2019-04-28T03:18:34.986Z,71.28
2019-04-28T03:21:04.699Z,72.02
2019-04-28T03:23:34.013Z,72.38
2019-04-28T03:26:16.569Z,73.05
2019-04-28T03:28:55.179Z,73.40
2019-04-28T03:32:04.206Z,72.66
2019-04-28T03:34:13.079Z,72.18
2019-04-28T03:36:42.272Z,72.56
2019-04-28T03:39:11.330Z,73.49
2019-04-28T03:41:40.780Z,75.85
2019-04-28T03:44:11.479Z,75.43
2019-04-28T03:46:46.925Z,76.02
2019-04-28T03:49:32.221Z,76.12
2019-04-28T03:52:05.497Z,76.09
2019-04-28T03:54:34.561Z,76.04
2019-04-28T03:57:05.310Z,76.49
2019-04-28T03:59:35.754Z,75.78
2019-04-28T04:02:07.570Z,75.36
2019-04-28T04:04:36.891Z,76.22
2019-04-28T04:07:06.729Z,75.16
2019-04-28T04:09:44.069Z,75.10
2019-04-28T04:12:21.157Z,75.43
2019-04-28T04:14:57.419Z,75.05
2019-04-28T04:17:42.122Z,75.37
2019-04-28T04:20:15.482Z,74.77
2019-04-28T04:22:44.835Z,76.17
2019-04-28T04:25:14.048Z,75.07
2019-04-28T04:27:43.434Z,75.43
2019-04-28T04:30:12.801Z,75.40
2019-04-28T04:32:41.910Z,75.02
2019-04-28T04:35:10.956Z,73.97
2019-04-28T04:37:40.741Z,73.83
2019-04-28T04:40:13.115Z,74.08
2019-04-28T04:42:40.976Z,74.02
2019-04-28T04:45:10.629Z,73.84
2019-04-28T04:47:40.649Z,73.89
2019-04-28T04:50:12.964Z,73.82
2019-04-28T04:52:41.034Z,73.30
2019-04-28T04:55:11.064Z,73.19
2019-04-28T04:57:40.880Z,74.17
2019-04-28T05:00:12.721Z,73.73
2019-04-28T05:03:00.811Z,74.35
2019-04-28T05:05:33.853Z,75.37
2019-04-28T05:08:05.968Z,75.96
2019-04-28T05:10:35.028Z,75.30
2019-04-28T05:13:04.546Z,75.05
2019-04-28T05:15:36.419Z,74.73
2019-04-28T05:18:10.158Z,74.51
2019-04-28T05:20:40.420Z,74.24
2019-04-28T05:23:29.780Z,75.21
2019-04-28T05:26:08.012Z,74.63
2019-04-28T05:28:36.973Z,73.51
2019-04-28T05:31:13.582Z,72.52
2019-04-28T05:33:39.567Z,72.83
2019-04-28T05:36:12.058Z,72.10
2019-04-28T05:38:42.574Z,72.67
2019-04-28T05:41:11.944Z,72.48
2019-04-28T05:43:41.009Z,71.76
2019-04-28T05:46:10.692Z,70.94
2019-04-28T05:48:49.473Z,70.98
2019-04-28T05:51:21.061Z,70.81
2019-04-28T05:53:59.410Z,72.83
2019-04-28T05:56:45.384Z,72.22
2019-04-28T05:59:37.214Z,72.79
2019-04-28T06:02:12.392Z,72.61
2019-04-28T06:04:41.792Z,72.68
2019-04-28T06:07:30.484Z,72.68
2019-04-28T06:10:00.183Z,72.17
2019-04-28T06:12:30.294Z,71.79
2019-04-28T06:15:03.857Z,71.41
2019-04-28T06:17:35.879Z,71.16
2019-04-28T06:20:06.141Z,71.54
2019-04-28T06:22:35.216Z,71.07
2019-04-28T06:25:05.717Z,71.57
2019-04-28T06:27:34.744Z,71.23
2019-04-28T06:30:04.848Z,71.18
2019-04-28T06:32:34.348Z,71.06
2019-04-28T06:35:03.567Z,70.26
2019-04-28T06:37:32.627Z,69.77
2019-04-28T06:40:03.739Z,69.83
2019-04-28T06:42:32.472Z,69.28
2019-04-28T06:45:01.816Z,69.15
2019-04-28T06:47:30.903Z,69.86
2019-04-28T06:49:59.988Z,69.30
2019-04-28T06:52:29.304Z,69.44
2019-04-28T06:54:58.426Z,69.62
2019-04-28T06:57:27.510Z,68.61
2019-04-28T06:59:56.810Z,69.24
2019-04-28T07:02:25.965Z,70.09
2019-04-28T07:05:01.913Z,70.29
2019-04-28T07:07:26.978Z,70.29
2019-04-28T07:09:56.050Z,69.67
2019-04-28T07:12:25.091Z,70.27
2019-04-28T07:14:54.405Z,68.50
2019-04-28T07:17:23.521Z,68.30
2019-04-28T07:20:01.005Z,68.02
2019-04-28T07:22:30.924Z,67.09
2019-04-28T07:24:59.972Z,66.77
2019-04-28T07:27:29.119Z,66.48
2019-04-28T07:30:01.352Z,67.35
2019-04-28T07:32:30.384Z,67.08
2019-04-28T07:34:59.448Z,67.67
2019-04-28T07:37:28.575Z,67.85
2019-04-28T07:39:57.926Z,67.32
2019-04-28T07:42:27.251Z,66.06
2019-04-28T07:44:56.371Z,65.53
2019-04-28T07:47:25.401Z,65.94
2019-04-28T07:49:54.948Z,65.72
2019-04-28T07:52:46.090Z,66.22
2019-04-28T07:55:15.462Z,65.65
2019-04-28T07:57:46.143Z,65.03
2019-04-28T08:00:18.956Z,64.81
2019-04-28T08:02:48.414Z,64.54
2019-04-28T08:05:17.571Z,63.80
2019-04-28T08:07:47.556Z,64.19
2019-04-28T08:10:16.893Z,63.23
2019-04-28T08:12:51.558Z,64.99
2019-04-28T08:15:20.689Z,64.91
2019-04-28T08:17:50.016Z,64.37
2019-04-28T08:20:19.093Z,65.34
2019-04-28T08:22:48.210Z,63.96
2019-04-28T08:25:17.622Z,62.77
2019-04-28T08:27:46.709Z,62.55
2019-04-28T08:30:15.800Z,62.73
2019-04-28T08:33:15.445Z,62.47
2019-04-28T08:35:58.709Z,61.39
2019-04-28T08:38:29.203Z,61.59
2019-04-28T08:40:58.376Z,62.01
2019-04-28T08:43:28.006Z,62.60
2019-04-28T08:45:58.800Z,62.77
2019-04-28T08:48:30.097Z,61.75
2019-04-28T08:51:00.289Z,62.04
2019-04-28T08:53:31.154Z,62.01
2019-04-28T08:56:01.279Z,61.67
2019-04-28T08:58:30.981Z,62.04
2019-04-28T09:01:00.385Z,61.32
2019-04-28T09:03:29.532Z,61.50
2019-04-28T09:06:01.367Z,59.97
2019-04-28T09:08:29.651Z,59.73
2019-04-28T09:10:59.602Z,58.57
2019-04-28T09:13:28.638Z,58.81
2019-04-28T09:15:57.984Z,58.84
2019-04-28T09:18:27.082Z,59.65
2019-04-28T09:20:56.222Z,58.58
2019-04-28T09:23:25.588Z,58.61
2019-04-28T09:25:54.689Z,58.82
2019-04-28T09:28:23.748Z,59.10
2019-04-28T09:30:53.090Z,58.84
2019-04-28T09:33:22.174Z,58.48
2019-04-28T09:35:51.253Z,57.86
2019-04-28T09:38:20.591Z,58.06
2019-04-28T09:40:49.689Z,58.51
2019-04-28T09:43:46.575Z,59.23
2019-04-28T09:46:20.018Z,59.42
2019-04-28T09:48:49.237Z,58.79
2019-04-28T09:51:18.270Z,58.33
2019-04-28T09:53:47.615Z,57.22
2019-04-28T09:56:16.699Z,57.20
2019-04-28T09:58:45.775Z,57.20
2019-04-28T10:01:15.202Z,56.49
2019-04-28T10:03:45.247Z,56.84
2019-04-28T10:06:14.315Z,56.22
2019-04-28T10:08:43.653Z,55.52
2019-04-28T10:11:13.041Z,55.47
2019-04-28T10:13:42.677Z,55.58
2019-04-28T10:16:13.395Z,54.66
2019-04-28T10:18:42.738Z,53.43
2019-04-28T10:21:12.394Z,53.24
2019-04-28T10:23:41.947Z,52.92
2019-04-28T10:26:11.014Z,52.19
2019-04-28T10:28:40.433Z,52.33
2019-04-28T10:31:09.924Z,52.22
2019-04-28T10:33:40.691Z,51.06
2019-04-28T10:36:12.073Z,51.12
2019-04-28T10:38:43.197Z,49.23
2019-04-28T10:41:31.510Z,50.23
2019-04-28T10:44:01.122Z,50.17
2019-04-28T10:46:30.910Z,51.25
2019-04-28T10:49:00.733Z,53.46
2019-04-28T10:51:29.966Z,54.38
2019-04-28T10:53:59.214Z,55.07
2019-04-28T10:56:28.680Z,55.90
2019-04-28T10:58:58.273Z,57.31
2019-04-28T11:01:27.355Z,59.06
2019-04-28T11:04:00.013Z,59.02
2019-04-28T11:06:29.117Z,59.03
2019-04-28T11:09:30.358Z,59.96
2019-04-28T11:11:55.493Z,61.59
2019-04-28T11:14:25.387Z,59.71
2019-04-28T11:16:54.469Z,59.11
2019-04-28T11:19:23.911Z,56.95
2019-04-28T11:21:53.000Z,54.14
2019-04-28T11:24:22.121Z,52.08
2019-04-28T11:26:51.548Z,52.64
2019-04-28T11:29:20.688Z,53.94
2019-04-28T11:31:49.891Z,56.51
2019-04-28T11:34:24.829Z,57.91
2019-04-28T11:36:53.910Z,58.76
2019-04-28T11:39:30.760Z,58.61
2019-04-28T11:41:59.903Z,61.04
2019-04-28T11:44:29.011Z,63.16
2019-04-28T11:46:58.371Z,63.13
2019-04-28T11:49:27.482Z,63.09
2019-04-28T11:51:56.588Z,59.43
2019-04-28T11:54:25.943Z,59.34
2019-04-28T11:56:55.061Z,59.26
2019-04-28T11:59:24.127Z,60.54
2019-04-28T12:01:53.566Z,61.46
2019-04-28T12:04:22.818Z,60.98
2019-04-28T12:06:51.858Z,62.21
2019-04-28T12:09:33.331Z,62.55
2019-04-28T12:12:04.266Z,61.92
2019-04-28T12:14:44.966Z,62.01
2019-04-28T12:17:45.826Z,59.80
2019-04-28T12:20:19.455Z,59.23
2019-04-28T12:22:48.881Z,58.46
2019-04-28T12:25:18.119Z,55.57
2019-04-28T12:27:50.600Z,54.76
2019-04-28T12:30:19.656Z,52.49
2019-04-28T12:32:49.020Z,51.39
2019-04-28T12:35:18.536Z,49.59
2019-04-28T12:37:47.641Z,49.23
2019-04-28T12:40:17.235Z,47.50
2019-04-28T12:42:46.813Z,48.32
2019-04-28T12:45:16.291Z,46.08
2019-04-28T12:47:46.813Z,47.41
2019-04-28T12:50:25.012Z,45.10
2019-04-28T12:52:55.696Z,44.44
2019-04-28T12:55:25.177Z,43.10
2019-04-28T12:57:54.427Z,40.67
2019-04-28T13:00:41.032Z,39.57
2019-04-28T13:03:38.417Z,38.73
2019-04-28T13:06:11.470Z,38.41
2019-04-28T13:08:40.958Z,37.06
2019-04-28T13:11:10.318Z,37.54
2019-04-28T13:13:40.510Z,37.58
2019-04-28T13:16:09.948Z,36.02
2019-04-28T13:18:39.905Z,35.41
2019-04-28T13:21:08.972Z,34.88
2019-04-28T13:23:38.349Z,33.87
2019-04-28T13:26:07.464Z,33.81
2019-04-28T13:28:36.575Z,33.63
2019-04-28T13:31:08.910Z,35.21
2019-04-28T13:33:37.981Z,33.71
2019-04-28T13:36:14.562Z,32.48
2019-04-28T13:38:37.804Z,33.65
2019-04-28T13:41:06.905Z,35.43
2019-04-28T13:43:35.994Z,36.74
2019-04-28T13:46:08.041Z,38.48
2019-04-28T13:48:37.413Z,38.92
2019-04-28T13:51:06.513Z,37.97
2019-04-28T13:53:35.552Z,36.64
2019-04-28T13:56:06.448Z,37.18
2019-04-28T13:58:45.242Z,38.16
2019-04-28T14:01:45.586Z,37.24
2019-04-28T14:04:38.755Z,37.96
2019-04-28T14:07:09.088Z,37.94
2019-04-28T14:09:38.558Z,37.88
2019-04-28T14:12:07.697Z,37.02
2019-04-28T14:14:37.049Z,36.90
2019-04-28T14:17:06.303Z,36.52
2019-04-28T14:19:36.552Z,37.64
2019-04-28T14:22:09.261Z,37.60
2019-04-28T14:24:38.450Z,35.88
2019-04-28T14:27:07.678Z,34.39
2019-04-28T14:29:37.110Z,32.86
2019-04-28T14:32:06.152Z,33.02
2019-04-28T14:34:35.225Z,32.55
2019-04-28T14:37:04.790Z,32.31
2019-04-28T14:39:33.902Z,30.77
2019-04-28T14:42:04.249Z,30.74
2019-04-28T14:44:33.426Z,30.96
2019-04-28T14:47:02.659Z,28.85
2019-04-28T14:49:32.019Z,33.33
2019-04-28T14:52:01.136Z,32.46
2019-04-28T14:54:30.180Z,32.81
2019-04-28T14:57:01.669Z,34.51
2019-04-28T14:59:30.865Z,34.95
2019-04-28T15:02:13.322Z,33.52
2019-04-28T15:05:10.630Z,32.39
2019-04-28T15:08:04.241Z,31.99
2019-04-28T15:10:42.797Z,33.49
2019-04-28T15:13:12.199Z,34.61
2019-04-28T15:15:41.532Z,34.38
2019-04-28T15:18:11.231Z,33.05
2019-04-28T15:20:41.980Z,32.55
2019-04-28T15:23:12.441Z,32.30
2019-04-28T15:25:43.032Z,32.87
2019-04-28T15:28:12.213Z,32.91
2019-04-28T15:30:41.572Z,33.48
2019-04-28T15:33:10.642Z,32.26
2019-04-28T15:35:39.759Z,32.34
2019-04-28T15:38:09.118Z,35.36
2019-04-28T15:40:38.269Z,35.67
2019-04-28T15:43:07.540Z,38.64
2019-04-28T15:45:36.889Z,41.73
2019-04-28T15:48:08.772Z,41.72
2019-04-28T15:50:38.849Z,41.02
2019-04-28T15:53:09.072Z,43.97
2019-04-28T15:55:47.491Z,45.63
2019-04-28T15:58:34.318Z,44.81
2019-04-28T16:01:03.836Z,43.47
2019-04-28T16:03:32.949Z,42.22
2019-04-28T16:06:02.993Z,42.21
2019-04-28T16:08:35.292Z,42.73
2019-04-28T16:11:08.467Z,42.85
2019-04-28T16:13:37.555Z,43.23
2019-04-28T16:16:06.929Z,44.36
2019-04-28T16:18:36.112Z,43.82
2019-04-28T16:21:08.020Z,43.36
2019-04-28T16:23:37.665Z,44.05
2019-04-28T16:26:06.732Z,44.63
2019-04-28T16:28:35.848Z,43.53
2019-04-28T16:31:05.504Z,42.21
2019-04-28T16:33:35.045Z,42.51
2019-04-28T16:36:04.972Z,41.97
2019-04-28T16:38:34.674Z,40.89
2019-04-28T16:41:04.582Z,41.37
2019-04-28T16:43:37.614Z,41.40
2019-04-28T16:46:07.021Z,41.27
2019-04-28T16:48:36.771Z,41.27
2019-04-28T16:51:07.923Z,41.04
2019-04-28T16:53:38.758Z,40.38
2019-04-28T16:56:41.676Z,41.36
2019-04-28T16:59:20.444Z,41.36
2019-04-28T17:01:59.406Z,41.58
2019-04-28T17:04:28.961Z,41.16
2019-04-28T17:06:58.476Z,42.35
2019-04-28T17:09:27.608Z,42.36
2019-04-28T17:11:56.970Z,41.97
2019-04-28T17:14:26.127Z,42.17
2019-04-28T17:16:57.355Z,42.93
2019-04-28T17:19:26.893Z,44.25
2019-04-28T17:21:56.393Z,44.42
2019-04-28T17:24:27.055Z,45.90
2019-04-28T17:26:56.622Z,45.35
2019-04-28T17:29:25.926Z,46.80
2019-04-28T17:31:56.288Z,47.19
2019-04-28T17:34:26.534Z,47.80
2019-04-28T17:36:55.758Z,48.80
2019-04-28T17:39:25.750Z,49.46
2019-04-28T17:41:55.666Z,50.84
2019-04-28T17:44:25.236Z,51.20
2019-04-28T17:46:54.525Z,50.92
2019-04-28T17:49:30.155Z,51.50
2019-04-28T17:52:00.448Z,51.35
2019-04-28T17:54:30.299Z,51.62
2019-04-28T17:56:59.805Z,52.04
2019-04-28T17:59:30.519Z,52.03
2019-04-28T18:02:17.307Z,52.18
2019-04-28T18:04:54.874Z,51.78
2019-04-28T18:07:33.045Z,51.95
2019-04-28T18:10:03.732Z,52.33
2019-04-28T18:12:33.202Z,52.55
2019-04-28T18:15:24.294Z,52.79
2019-04-28T18:18:18.515Z,52.75
2019-04-28T18:20:47.759Z,52.97
2019-04-28T18:23:17.046Z,52.92
2019-04-28T18:25:47.074Z,53.40
2019-04-28T18:28:16.744Z,54.64
2019-04-28T18:30:56.929Z,54.70
2019-04-28T18:34:04.510Z,54.82
2019-04-28T18:36:41.251Z,54.90
2019-04-28T18:39:39.128Z,54.65
2019-04-28T18:42:19.509Z,54.21
2019-04-28T18:44:51.328Z,54.43
2019-04-28T18:47:20.748Z,54.26
2019-04-28T18:49:49.865Z,53.97
2019-04-28T18:52:19.366Z,53.45
2019-04-28T18:54:48.436Z,53.69
2019-04-28T18:57:17.514Z,53.82
2019-04-28T18:59:48.604Z,54.27
2019-04-28T19:02:39.646Z,53.65
2019-04-28T19:05:10.558Z,53.64
2019-04-28T19:08:01.735Z,53.86
2019-04-28T19:10:56.399Z,53.89
2019-04-28T19:13:28.502Z,54.05
2019-04-28T19:16:15.345Z,53.87
2019-04-28T19:18:45.184Z,53.79
2019-04-28T19:21:14.680Z,53.15
2019-04-28T19:23:43.866Z,52.72
2019-04-28T19:26:12.982Z,53.13
2019-04-28T19:28:43.202Z,52.93
2019-04-28T19:31:12.350Z,53.53
2019-04-28T19:33:41.505Z,53.46
2019-04-28T19:36:11.407Z,53.78
2019-04-28T19:38:40.794Z,53.59
2019-04-28T19:41:10.135Z,53.34
2019-04-28T19:43:43.340Z,53.02
2019-04-28T19:46:14.833Z,53.83
2019-04-28T19:48:44.695Z,53.15
2019-04-28T19:51:14.494Z,52.91
2019-04-28T19:53:43.968Z,52.88
2019-04-28T19:56:35.223Z,53.02
2019-04-28T19:59:11.843Z,53.30
2019-04-28T20:01:40.928Z,53.56
2019-04-28T20:04:10.859Z,54.92
2019-04-28T20:06:40.636Z,54.89
2019-04-28T20:09:12.772Z,54.62
2019-04-28T20:11:42.196Z,54.21
2019-04-28T20:14:11.515Z,53.97
2019-04-28T20:16:40.917Z,53.83
2019-04-28T20:19:10.503Z,53.85
2019-04-28T20:21:42.391Z,53.82
2019-04-28T20:24:11.514Z,54.11
2019-04-28T20:26:40.568Z,53.77
2019-04-28T20:29:09.729Z,55.55
2019-04-28T20:31:39.121Z,56.50
2019-04-28T20:34:08.760Z,56.86
2019-04-28T20:37:11.758Z,57.47
2019-04-28T20:39:41.442Z,58.15
2019-04-28T20:42:28.329Z,58.10
2019-04-28T20:44:57.926Z,59.57
2019-04-28T20:47:27.693Z,60.15
2019-04-28T20:49:58.887Z,60.48
2019-04-28T20:52:28.770Z,60.05
2019-04-28T20:54:59.174Z,60.12
2019-04-28T20:57:28.405Z,60.14
2019-04-28T20:59:59.143Z,60.94
2019-04-28T21:02:28.389Z,61.66
2019-04-28T21:04:57.979Z,61.76
2019-04-28T21:07:30.225Z,62.74
2019-04-28T21:10:00.040Z,62.97
2019-04-28T21:12:29.213Z,63.01
2019-04-28T21:14:58.686Z,63.04
2019-04-28T21:17:28.068Z,63.36
2019-04-28T21:19:57.416Z,64.01
2019-04-28T21:22:27.238Z,63.74
2019-04-28T21:24:56.293Z,64.28
2019-04-28T21:27:25.404Z,63.65
2019-04-28T21:29:54.760Z,63.37
2019-04-28T21:32:24.087Z,63.52
2019-04-28T21:34:54.108Z,63.94
2019-04-28T21:37:23.467Z,64.54
2019-04-28T21:39:52.537Z,64.17
2019-04-28T21:42:24.057Z,63.92
2019-04-28T21:45:09.285Z,65.32
2019-04-28T21:47:38.503Z,64.81
2019-04-28T21:50:08.476Z,64.85
2019-04-28T21:52:37.629Z,65.75
2019-04-28T21:55:08.741Z,65.69
2019-04-28T21:57:38.692Z,66.55
2019-04-28T22:00:08.734Z,66.34
2019-04-28T22:02:37.970Z,67.07
2019-04-28T22:05:07.632Z,66.30
2019-04-28T22:07:36.767Z,67.21
2019-04-28T22:10:09.282Z,67.49
2019-04-28T22:12:38.910Z,68.46
2019-04-28T22:15:08.134Z,68.08
2019-04-28T22:17:37.373Z,67.13
2019-04-28T22:20:07.184Z,66.16
2019-04-28T22:22:36.635Z,65.91
2019-04-28T22:25:11.251Z,65.74
2019-04-28T22:27:42.027Z,66.93
2019-04-28T22:30:11.283Z,67.59
2019-04-28T22:32:40.589Z,68.14
2019-04-28T22:35:10.668Z,68.52
2019-04-28T22:37:40.593Z,68.45
2019-04-28T22:40:09.860Z,68.17
2019-04-28T22:42:39.826Z,69.06
2019-04-28T22:45:09.655Z,67.94
2019-04-28T22:47:38.713Z,68.62
2019-04-28T22:50:13.738Z,68.70
2019-04-28T22:52:42.933Z,68.89
2019-04-28T22:55:17.873Z,69.32
2019-04-28T22:58:08.056Z,68.06
2019-04-28T23:01:02.797Z,68.93
2019-04-28T23:03:43.710Z,69.12
2019-04-28T23:06:13.308Z,69.20
2019-04-28T23:08:42.394Z,68.46
2019-04-28T23:11:11.486Z,68.97
2019-04-28T23:13:40.823Z,68.87
2019-04-28T23:16:10.336Z,70.06
2019-04-28T23:18:39.473Z,69.54
2019-04-28T23:21:23.572Z,70.15
2019-04-28T23:23:52.830Z,70.07
2019-04-28T23:26:22.235Z,69.82
2019-04-28T23:28:51.316Z,70.29
2019-04-28T23:31:20.415Z,70.65
2019-04-28T23:33:49.458Z,69.22
2019-04-28T23:36:18.995Z,69.18
2019-04-28T23:38:49.446Z,69.15
2019-04-28T23:41:26.566Z,69.05
2019-04-28T23:43:55.914Z,68.98
2019-04-28T23:46:43.916Z,68.91
2019-04-28T23:49:12.975Z,69.22
2019-04-28T23:51:47.565Z,70.50
2019-04-28T23:54:16.631Z,70.69
2019-04-28T23:56:45.778Z,70.97
2019-04-28T23:59:15.230Z,70.81
